sensor_id;sensor_type;location;lat;lon;timestamp;temperature;humidity
14053;DHT22;7101;51.600;7.310;2022-12-29T00:00:12;10.30;99.90
14053;DHT22;7101;51.600;7.310;2022-12-29T00:02:39;10.30;99.90
14053;DHT22;7101;51.600;7.310;2022-12-29T00:05:06;10.40;99.90
14053;DHT22;7101;51.600;7.310;2022-12-29T00:07:34;10.40;93.10
14053;DHT22;7101;51.600;7.310;2022-12-29T00:10:01;10.50;21.40
14053;DHT22;7101;51.600;7.310;2022-12-29T00:12:28;10.50;1.00
14053;DHT22;7101;51.600;7.310;2022-12-29T00:15:15;10.50;1.00
14053;DHT22;7101;51.600;7.310;2022-12-29T00:17:59;10.50;1.00
14053;DHT22;7101;51.600;7.310;2022-12-29T00:20:26;10.50;1.00
14053;DHT22;7101;51.600;7.310;2022-12-29T00:23:12;10.50;1.00
14053;DHT22;7101;51.600;7.310;2022-12-29T00:25:56;10.50;1.00
14053;DHT22;7101;51.600;7.310;2022-12-29T00:28:40;10.50;1.00
14053;DHT22;7101;51.600;7.310;2022-12-29T00:31:25;10.60;1.00
14053;DHT22;7101;51.600;7.310;2022-12-29T00:34:11;10.50;1.00
14053;DHT22;7101;51.600;7.310;2022-12-29T00:36:55;10.50;1.00
14053;DHT22;7101;51.600;7.310;2022-12-29T00:39:24;10.50;38.00
14053;DHT22;7101;51.600;7.310;2022-12-29T00:42:09;10.50;99.90
14053;DHT22;7101;51.600;7.310;2022-12-29T00:44:59;10.50;99.90
14053;DHT22;7101;51.600;7.310;2022-12-29T00:47:26;10.40;99.90
14053;DHT22;7101;51.600;7.310;2022-12-29T00:49:52;10.50;99.90
14053;DHT22;7101;51.600;7.310;2022-12-29T00:52:18;10.40;99.90
14053;DHT22;7101;51.600;7.310;2022-12-29T00:54:46;10.40;99.90
14053;DHT22;7101;51.600;7.310;2022-12-29T00:57:13;10.40;99.90
14053;DHT22;7101;51.600;7.310;2022-12-29T00:59:41;10.40;99.90
14053;DHT22;7101;51.600;7.310;2022-12-29T01:02:09;10.40;99.90
14053;DHT22;7101;51.600;7.310;2022-12-29T01:04:36;10.40;99.90
14053;DHT22;7101;51.600;7.310;2022-12-29T01:07:04;10.40;99.90
14053;DHT22;7101;51.600;7.310;2022-12-29T01:09:31;10.50;99.90
14053;DHT22;7101;51.600;7.310;2022-12-29T01:12:18;10.50;99.90
14053;DHT22;7101;51.600;7.310;2022-12-29T01:15:06;10.50;99.90
14053;DHT22;7101;51.600;7.310;2022-12-29T01:17:34;10.50;99.90
14053;DHT22;7101;51.600;7.310;2022-12-29T01:20:01;10.40;99.90
14053;DHT22;7101;51.600;7.310;2022-12-29T01:22:28;10.40;99.90
14053;DHT22;7101;51.600;7.310;2022-12-29T01:24:54;10.40;99.90
14053;DHT22;7101;51.600;7.310;2022-12-29T01:27:23;10.40;99.90
14053;DHT22;7101;51.600;7.310;2022-12-29T01:29:49;10.40;99.90
14053;DHT22;7101;51.600;7.310;2022-12-29T01:32:16;10.30;99.90
14053;DHT22;7101;51.600;7.310;2022-12-29T01:34:43;10.30;99.90
14053;DHT22;7101;51.600;7.310;2022-12-29T01:37:10;10.40;99.90
14053;DHT22;7101;51.600;7.310;2022-12-29T01:39:37;10.40;99.90
14053;DHT22;7101;51.600;7.310;2022-12-29T01:42:04;10.50;99.90
14053;DHT22;7101;51.600;7.310;2022-12-29T01:44:57;10.50;99.90
14053;DHT22;7101;51.600;7.310;2022-12-29T01:47:32;10.60;99.90
14053;DHT22;7101;51.600;7.310;2022-12-29T01:50:05;10.60;99.90
14053;DHT22;7101;51.600;7.310;2022-12-29T01:52:34;10.60;99.90
14053;DHT22;7101;51.600;7.310;2022-12-29T01:55:02;10.60;99.90
14053;DHT22;7101;51.600;7.310;2022-12-29T01:57:34;10.70;99.90
14053;DHT22;7101;51.600;7.310;2022-12-29T02:00:07;10.70;99.90
14053;DHT22;7101;51.600;7.310;2022-12-29T02:02:34;10.80;1.00
14053;DHT22;7101;51.600;7.310;2022-12-29T02:05:05;10.80;1.00
14053;DHT22;7101;51.600;7.310;2022-12-29T02:07:34;10.80;1.00
14053;DHT22;7101;51.600;7.310;2022-12-29T02:10:02;10.90;99.90
14053;DHT22;7101;51.600;7.310;2022-12-29T02:12:29;10.90;99.90
14053;DHT22;7101;51.600;7.310;2022-12-29T02:14:59;11.00;3.00
14053;DHT22;7101;51.600;7.310;2022-12-29T02:17:53;11.00;25.00
14053;DHT22;7101;51.600;7.310;2022-12-29T02:20:48;11.00;18.70
14053;DHT22;7101;51.600;7.310;2022-12-29T02:26:26;11.00;1.00
14053;DHT22;7101;51.600;7.310;2022-12-29T02:31:58;11.00;1.00
14053;DHT22;7101;51.600;7.310;2022-12-29T02:34:35;11.10;1.00
14053;DHT22;7101;51.600;7.310;2022-12-29T02:37:11;11.10;1.00
14053;DHT22;7101;51.600;7.310;2022-12-29T02:39:43;11.00;1.00
14053;DHT22;7101;51.600;7.310;2022-12-29T02:42:22;11.00;1.00
14053;DHT22;7101;51.600;7.310;2022-12-29T02:44:55;11.10;1.00
14053;DHT22;7101;51.600;7.310;2022-12-29T02:47:33;11.00;1.00
14053;DHT22;7101;51.600;7.310;2022-12-29T02:50:05;11.00;1.00
14053;DHT22;7101;51.600;7.310;2022-12-29T02:52:36;11.10;1.00
14053;DHT22;7101;51.600;7.310;2022-12-29T02:55:05;11.10;1.00
14053;DHT22;7101;51.600;7.310;2022-12-29T02:57:34;11.10;1.00
14053;DHT22;7101;51.600;7.310;2022-12-29T03:00:04;11.10;1.00
14053;DHT22;7101;51.600;7.310;2022-12-29T03:03:00;11.20;1.00
14053;DHT22;7101;51.600;7.310;2022-12-29T03:06:02;11.20;1.00
14053;DHT22;7101;51.600;7.310;2022-12-29T03:08:38;11.20;1.00
14053;DHT22;7101;51.600;7.310;2022-12-29T03:11:09;11.30;1.00
14053;DHT22;7101;51.600;7.310;2022-12-29T03:14:02;11.30;1.00
14053;DHT22;7101;51.600;7.310;2022-12-29T03:16:55;11.30;99.90
14053;DHT22;7101;51.600;7.310;2022-12-29T03:19:30;11.30;99.90
14053;DHT22;7101;51.600;7.310;2022-12-29T03:22:00;11.30;99.90
14053;DHT22;7101;51.600;7.310;2022-12-29T03:24:47;11.30;99.90
14053;DHT22;7101;51.600;7.310;2022-12-29T03:27:19;11.30;99.90
14053;DHT22;7101;51.600;7.310;2022-12-29T03:29:50;11.30;99.90
14053;DHT22;7101;51.600;7.310;2022-12-29T03:32:22;11.20;1.00
14053;DHT22;7101;51.600;7.310;2022-12-29T03:34:53;11.20;1.00
14053;DHT22;7101;51.600;7.310;2022-12-29T03:37:25;11.20;1.00
14053;DHT22;7101;51.600;7.310;2022-12-29T03:39:55;11.10;1.00
14053;DHT22;7101;51.600;7.310;2022-12-29T03:42:26;11.10;1.00
14053;DHT22;7101;51.600;7.310;2022-12-29T03:44:56;11.20;1.00
14053;DHT22;7101;51.600;7.310;2022-12-29T03:47:23;11.20;99.90
14053;DHT22;7101;51.600;7.310;2022-12-29T03:49:52;11.20;99.90
14053;DHT22;7101;51.600;7.310;2022-12-29T03:52:19;11.30;99.90
14053;DHT22;7101;51.600;7.310;2022-12-29T03:54:47;11.40;99.90
14053;DHT22;7101;51.600;7.310;2022-12-29T03:57:14;11.40;99.90
14053;DHT22;7101;51.600;7.310;2022-12-29T03:59:41;11.40;99.90
14053;DHT22;7101;51.600;7.310;2022-12-29T04:02:08;11.30;99.90
14053;DHT22;7101;51.600;7.310;2022-12-29T04:04:35;11.40;99.90
14053;DHT22;7101;51.600;7.310;2022-12-29T04:07:03;11.40;1.00
14053;DHT22;7101;51.600;7.310;2022-12-29T04:09:30;11.30;1.00
14053;DHT22;7101;51.600;7.310;2022-12-29T04:11:57;11.20;1.00
14053;DHT22;7101;51.600;7.310;2022-12-29T04:14:24;11.20;1.00
14053;DHT22;7101;51.600;7.310;2022-12-29T04:16:50;11.10;1.00
14053;DHT22;7101;51.600;7.310;2022-12-29T04:19:17;11.10;1.00
14053;DHT22;7101;51.600;7.310;2022-12-29T04:21:44;11.00;95.20
14053;DHT22;7101;51.600;7.310;2022-12-29T04:24:12;10.90;99.90
14053;DHT22;7101;51.600;7.310;2022-12-29T04:26:38;10.80;99.90
14053;DHT22;7101;51.600;7.310;2022-12-29T04:29:05;10.80;99.90
14053;DHT22;7101;51.600;7.310;2022-12-29T04:31:32;10.70;99.90
14053;DHT22;7101;51.600;7.310;2022-12-29T04:34:00;10.70;99.90
14053;DHT22;7101;51.600;7.310;2022-12-29T04:36:27;10.70;99.90
14053;DHT22;7101;51.600;7.310;2022-12-29T04:38:54;10.70;99.90
14053;DHT22;7101;51.600;7.310;2022-12-29T04:41:22;10.80;99.90
14053;DHT22;7101;51.600;7.310;2022-12-29T04:43:49;10.80;70.90
14053;DHT22;7101;51.600;7.310;2022-12-29T04:46:16;10.80;1.00
14053;DHT22;7101;51.600;7.310;2022-12-29T04:48:42;10.80;1.00
14053;DHT22;7101;51.600;7.310;2022-12-29T04:51:09;10.90;1.00
14053;DHT22;7101;51.600;7.310;2022-12-29T04:53:36;10.90;1.00
14053;DHT22;7101;51.600;7.310;2022-12-29T04:56:03;11.00;1.00
14053;DHT22;7101;51.600;7.310;2022-12-29T04:58:32;11.00;1.00
14053;DHT22;7101;51.600;7.310;2022-12-29T05:00:59;11.10;1.00
14053;DHT22;7101;51.600;7.310;2022-12-29T05:03:34;11.20;1.00
14053;DHT22;7101;51.600;7.310;2022-12-29T05:06:01;11.30;99.90
14053;DHT22;7101;51.600;7.310;2022-12-29T05:08:28;11.30;99.90
14053;DHT22;7101;51.600;7.310;2022-12-29T05:10:55;11.40;99.90
14053;DHT22;7101;51.600;7.310;2022-12-29T05:13:21;11.40;99.90
14053;DHT22;7101;51.600;7.310;2022-12-29T05:15:51;11.50;99.90
14053;DHT22;7101;51.600;7.310;2022-12-29T05:18:18;11.50;95.40
14053;DHT22;7101;51.600;7.310;2022-12-29T05:20:46;11.60;19.80
14053;DHT22;7101;51.600;7.310;2022-12-29T05:23:15;11.60;10.30
14053;DHT22;7101;51.600;7.310;2022-12-29T05:25:43;11.60;1.00
14053;DHT22;7101;51.600;7.310;2022-12-29T05:28:11;11.70;1.00
14053;DHT22;7101;51.600;7.310;2022-12-29T05:30:38;11.70;1.00
14053;DHT22;7101;51.600;7.310;2022-12-29T05:33:07;11.70;1.00
14053;DHT22;7101;51.600;7.310;2022-12-29T05:35:37;11.70;1.00
14053;DHT22;7101;51.600;7.310;2022-12-29T05:38:04;11.70;1.00
14053;DHT22;7101;51.600;7.310;2022-12-29T05:40:31;11.70;1.00
14053;DHT22;7101;51.600;7.310;2022-12-29T05:42:58;11.70;1.00
14053;DHT22;7101;51.600;7.310;2022-12-29T05:45:25;11.70;1.00
14053;DHT22;7101;51.600;7.310;2022-12-29T05:47:51;11.80;1.00
14053;DHT22;7101;51.600;7.310;2022-12-29T05:50:20;11.80;1.00
14053;DHT22;7101;51.600;7.310;2022-12-29T05:52:47;11.80;1.00
14053;DHT22;7101;51.600;7.310;2022-12-29T05:55:14;11.80;1.00
14053;DHT22;7101;51.600;7.310;2022-12-29T05:57:43;11.80;1.00
14053;DHT22;7101;51.600;7.310;2022-12-29T06:00:10;11.70;1.00
14053;DHT22;7101;51.600;7.310;2022-12-29T06:02:37;11.60;1.00
14053;DHT22;7101;51.600;7.310;2022-12-29T06:05:05;11.70;99.90
14053;DHT22;7101;51.600;7.310;2022-12-29T06:07:34;11.60;99.90
14053;DHT22;7101;51.600;7.310;2022-12-29T06:10:00;11.50;99.90
14053;DHT22;7101;51.600;7.310;2022-12-29T06:12:27;11.50;1.00
14053;DHT22;7101;51.600;7.310;2022-12-29T06:14:54;11.50;1.00
14053;DHT22;7101;51.600;7.310;2022-12-29T06:17:21;11.40;1.00
14053;DHT22;7101;51.600;7.310;2022-12-29T06:19:48;11.40;1.00
14053;DHT22;7101;51.600;7.310;2022-12-29T06:22:15;11.40;1.00
14053;DHT22;7101;51.600;7.310;2022-12-29T06:24:43;11.40;1.00
14053;DHT22;7101;51.600;7.310;2022-12-29T06:27:10;11.40;15.20
14053;DHT22;7101;51.600;7.310;2022-12-29T06:29:36;11.40;79.70
14053;DHT22;7101;51.600;7.310;2022-12-29T06:32:05;11.30;99.90
14053;DHT22;7101;51.600;7.310;2022-12-29T06:34:32;11.30;99.90
14053;DHT22;7101;51.600;7.310;2022-12-29T06:37:00;11.10;99.90
14053;DHT22;7101;51.600;7.310;2022-12-29T06:39:27;11.10;99.90
14053;DHT22;7101;51.600;7.310;2022-12-29T06:41:55;11.00;99.90
14053;DHT22;7101;51.600;7.310;2022-12-29T06:44:22;11.00;99.90
14053;DHT22;7101;51.600;7.310;2022-12-29T06:46:50;11.00;99.90
14053;DHT22;7101;51.600;7.310;2022-12-29T06:49:17;11.00;1.00
14053;DHT22;7101;51.600;7.310;2022-12-29T06:51:44;11.00;1.00
14053;DHT22;7101;51.600;7.310;2022-12-29T06:54:12;11.00;1.00
14053;DHT22;7101;51.600;7.310;2022-12-29T06:56:38;11.10;1.00
14053;DHT22;7101;51.600;7.310;2022-12-29T06:59:07;11.00;1.00
14053;DHT22;7101;51.600;7.310;2022-12-29T07:01:34;11.10;99.90
14053;DHT22;7101;51.600;7.310;2022-12-29T07:04:01;11.10;99.90
14053;DHT22;7101;51.600;7.310;2022-12-29T07:06:29;11.00;99.90
14053;DHT22;7101;51.600;7.310;2022-12-29T07:08:56;11.10;99.90
14053;DHT22;7101;51.600;7.310;2022-12-29T07:11:23;11.00;99.90
14053;DHT22;7101;51.600;7.310;2022-12-29T07:13:50;11.00;99.90
14053;DHT22;7101;51.600;7.310;2022-12-29T07:16:18;10.90;99.90
14053;DHT22;7101;51.600;7.310;2022-12-29T07:18:45;10.90;57.80
14053;DHT22;7101;51.600;7.310;2022-12-29T07:21:12;10.90;67.90
14053;DHT22;7101;51.600;7.310;2022-12-29T07:23:39;10.90;44.60
14053;DHT22;7101;51.600;7.310;2022-12-29T07:26:08;11.00;1.00
14053;DHT22;7101;51.600;7.310;2022-12-29T07:28:37;10.90;29.40
14053;DHT22;7101;51.600;7.310;2022-12-29T07:31:04;10.90;72.40
14053;DHT22;7101;51.600;7.310;2022-12-29T07:33:34;11.00;18.80
14053;DHT22;7101;51.600;7.310;2022-12-29T07:36:01;11.00;1.00
14053;DHT22;7101;51.600;7.310;2022-12-29T07:38:28;11.10;1.00
14053;DHT22;7101;51.600;7.310;2022-12-29T07:40:57;11.10;1.00
14053;DHT22;7101;51.600;7.310;2022-12-29T07:43:24;11.10;1.00
14053;DHT22;7101;51.600;7.310;2022-12-29T07:45:51;11.10;1.00
14053;DHT22;7101;51.600;7.310;2022-12-29T07:48:21;11.00;1.00
14053;DHT22;7101;51.600;7.310;2022-12-29T07:50:49;11.00;78.20
14053;DHT22;7101;51.600;7.310;2022-12-29T07:53:16;11.00;99.90
14053;DHT22;7101;51.600;7.310;2022-12-29T07:55:45;10.90;99.90
14053;DHT22;7101;51.600;7.310;2022-12-29T07:58:12;10.80;99.90
14053;DHT22;7101;51.600;7.310;2022-12-29T08:00:39;10.70;99.90
14053;DHT22;7101;51.600;7.310;2022-12-29T08:03:06;10.60;1.00
14053;DHT22;7101;51.600;7.310;2022-12-29T08:05:33;10.60;1.00
14053;DHT22;7101;51.600;7.310;2022-12-29T08:08:02;10.60;99.90
14053;DHT22;7101;51.600;7.310;2022-12-29T08:10:29;10.60;99.90
14053;DHT22;7101;51.600;7.310;2022-12-29T08:12:55;10.70;99.90
14053;DHT22;7101;51.600;7.310;2022-12-29T08:15:23;10.70;99.90
14053;DHT22;7101;51.600;7.310;2022-12-29T08:17:50;10.70;1.00
14053;DHT22;7101;51.600;7.310;2022-12-29T08:20:17;10.80;1.00
14053;DHT22;7101;51.600;7.310;2022-12-29T08:22:43;10.80;1.00
14053;DHT22;7101;51.600;7.310;2022-12-29T08:25:13;10.80;1.00
14053;DHT22;7101;51.600;7.310;2022-12-29T08:27:40;10.80;1.00
14053;DHT22;7101;51.600;7.310;2022-12-29T08:30:08;10.80;99.90
14053;DHT22;7101;51.600;7.310;2022-12-29T08:32:35;10.70;99.90
14053;DHT22;7101;51.600;7.310;2022-12-29T08:35:03;10.70;1.00
14053;DHT22;7101;51.600;7.310;2022-12-29T08:37:32;10.70;99.90
14053;DHT22;7101;51.600;7.310;2022-12-29T08:39:59;10.70;99.90
14053;DHT22;7101;51.600;7.310;2022-12-29T08:42:30;10.80;99.90
14053;DHT22;7101;51.600;7.310;2022-12-29T08:44:57;10.90;1.00
14053;DHT22;7101;51.600;7.310;2022-12-29T08:47:24;10.90;99.90
14053;DHT22;7101;51.600;7.310;2022-12-29T08:49:51;11.10;99.90
14053;DHT22;7101;51.600;7.310;2022-12-29T08:52:18;11.10;99.90
14053;DHT22;7101;51.600;7.310;2022-12-29T08:54:45;11.10;99.90
14053;DHT22;7101;51.600;7.310;2022-12-29T08:57:12;11.10;99.90
14053;DHT22;7101;51.600;7.310;2022-12-29T08:59:41;11.00;99.90
14053;DHT22;7101;51.600;7.310;2022-12-29T09:02:10;11.00;99.90
14053;DHT22;7101;51.600;7.310;2022-12-29T09:04:37;11.00;99.90
14053;DHT22;7101;51.600;7.310;2022-12-29T09:07:04;11.00;99.90
14053;DHT22;7101;51.600;7.310;2022-12-29T09:09:32;11.00;99.90
14053;DHT22;7101;51.600;7.310;2022-12-29T09:11:59;11.00;99.90
14053;DHT22;7101;51.600;7.310;2022-12-29T09:14:26;11.00;1.00
14053;DHT22;7101;51.600;7.310;2022-12-29T09:16:54;11.00;1.00
14053;DHT22;7101;51.600;7.310;2022-12-29T09:19:38;10.90;1.00
14053;DHT22;7101;51.600;7.310;2022-12-29T09:22:05;10.70;99.90
14053;DHT22;7101;51.600;7.310;2022-12-29T09:24:32;10.60;99.90
14053;DHT22;7101;51.600;7.310;2022-12-29T09:26:59;10.50;99.90
14053;DHT22;7101;51.600;7.310;2022-12-29T09:29:26;10.60;68.60
14053;DHT22;7101;51.600;7.310;2022-12-29T09:31:54;10.70;1.00
14053;DHT22;7101;51.600;7.310;2022-12-29T09:34:21;10.80;1.00
14053;DHT22;7101;51.600;7.310;2022-12-29T09:36:48;10.90;1.00
14053;DHT22;7101;51.600;7.310;2022-12-29T09:39:15;11.00;99.90
14053;DHT22;7101;51.600;7.310;2022-12-29T09:41:48;11.10;99.90
14053;DHT22;7101;51.600;7.310;2022-12-29T09:44:21;11.20;95.60
14053;DHT22;7101;51.600;7.310;2022-12-29T09:46:51;11.40;1.00
14053;DHT22;7101;51.600;7.310;2022-12-29T09:49:26;11.20;1.00
14053;DHT22;7101;51.600;7.310;2022-12-29T09:52:02;11.20;1.00
14053;DHT22;7101;51.600;7.310;2022-12-29T09:54:41;11.40;54.10
14053;DHT22;7101;51.600;7.310;2022-12-29T09:57:15;11.20;1.00
14053;DHT22;7101;51.600;7.310;2022-12-29T09:59:44;11.30;1.00
14053;DHT22;7101;51.600;7.310;2022-12-29T10:02:28;11.30;1.00
14053;DHT22;7101;51.600;7.310;2022-12-29T10:04:57;11.20;1.00
14053;DHT22;7101;51.600;7.310;2022-12-29T10:07:31;11.20;1.00
14053;DHT22;7101;51.600;7.310;2022-12-29T10:10:06;11.20;1.00
14053;DHT22;7101;51.600;7.310;2022-12-29T10:16:02;11.10;1.00
14053;DHT22;7101;51.600;7.310;2022-12-29T10:18:52;11.10;1.00
14053;DHT22;7101;51.600;7.310;2022-12-29T10:21:33;11.20;1.00
14053;DHT22;7101;51.600;7.310;2022-12-29T10:24:07;11.20;99.90
14053;DHT22;7101;51.600;7.310;2022-12-29T10:26:40;11.30;99.90
14053;DHT22;7101;51.600;7.310;2022-12-29T10:29:13;11.20;23.90
14053;DHT22;7101;51.600;7.310;2022-12-29T10:31:44;11.30;99.90
14053;DHT22;7101;51.600;7.310;2022-12-29T10:34:19;11.20;1.00
14053;DHT22;7101;51.600;7.310;2022-12-29T10:36:49;11.20;1.00
14053;DHT22;7101;51.600;7.310;2022-12-29T10:39:22;11.30;10.90
14053;DHT22;7101;51.600;7.310;2022-12-29T10:41:55;11.30;1.00
14053;DHT22;7101;51.600;7.310;2022-12-29T10:44:29;11.30;1.00
14053;DHT22;7101;51.600;7.310;2022-12-29T10:46:59;11.20;99.90
14053;DHT22;7101;51.600;7.310;2022-12-29T10:49:31;11.30;1.00
14053;DHT22;7101;51.600;7.310;2022-12-29T10:52:03;11.20;1.00
14053;DHT22;7101;51.600;7.310;2022-12-29T10:54:36;11.20;1.00
14053;DHT22;7101;51.600;7.310;2022-12-29T10:57:08;11.20;1.00
14053;DHT22;7101;51.600;7.310;2022-12-29T10:59:38;11.20;99.90
14053;DHT22;7101;51.600;7.310;2022-12-29T11:02:25;11.20;99.90
14053;DHT22;7101;51.600;7.310;2022-12-29T11:04:59;11.10;1.00
14053;DHT22;7101;51.600;7.310;2022-12-29T11:07:31;11.10;99.90
14053;DHT22;7101;51.600;7.310;2022-12-29T11:10:16;11.20;99.90
14053;DHT22;7101;51.600;7.310;2022-12-29T11:12:55;11.20;1.00
14053;DHT22;7101;51.600;7.310;2022-12-29T11:15:28;11.20;99.90
14053;DHT22;7101;51.600;7.310;2022-12-29T11:18:04;11.30;99.90
14053;DHT22;7101;51.600;7.310;2022-12-29T11:20:33;11.30;1.00
14053;DHT22;7101;51.600;7.310;2022-12-29T11:23:03;11.30;1.00
14053;DHT22;7101;51.600;7.310;2022-12-29T11:25:30;11.30;1.00
14053;DHT22;7101;51.600;7.310;2022-12-29T11:28:00;11.30;99.90
14053;DHT22;7101;51.600;7.310;2022-12-29T11:30:29;11.30;1.00
14053;DHT22;7101;51.600;7.310;2022-12-29T11:32:57;11.30;1.00
14053;DHT22;7101;51.600;7.310;2022-12-29T11:35:33;11.30;99.90
14053;DHT22;7101;51.600;7.310;2022-12-29T11:38:04;11.30;99.90
14053;DHT22;7101;51.600;7.310;2022-12-29T11:40:31;11.20;1.00
14053;DHT22;7101;51.600;7.310;2022-12-29T11:43:04;11.20;41.80
14053;DHT22;7101;51.600;7.310;2022-12-29T11:45:34;11.20;99.90
14053;DHT22;7101;51.600;7.310;2022-12-29T11:48:07;11.20;1.00
14053;DHT22;7101;51.600;7.310;2022-12-29T11:50:37;11.10;99.90
14053;DHT22;7101;51.600;7.310;2022-12-29T11:53:16;11.20;99.90
14053;DHT22;7101;51.600;7.310;2022-12-29T11:55:51;11.30;99.90
14053;DHT22;7101;51.600;7.310;2022-12-29T11:58:18;11.30;99.90
14053;DHT22;7101;51.600;7.310;2022-12-29T12:00:46;11.30;1.00
14053;DHT22;7101;51.600;7.310;2022-12-29T12:03:18;11.40;99.90
14053;DHT22;7101;51.600;7.310;2022-12-29T12:05:48;11.50;99.90
14053;DHT22;7101;51.600;7.310;2022-12-29T12:08:23;11.50;1.00
14053;DHT22;7101;51.600;7.310;2022-12-29T12:10:58;11.60;1.00
14053;DHT22;7101;51.600;7.310;2022-12-29T12:13:31;11.50;1.00
14053;DHT22;7101;51.600;7.310;2022-12-29T12:16:05;11.50;1.00
14053;DHT22;7101;51.600;7.310;2022-12-29T12:18:39;11.50;1.00
14053;DHT22;7101;51.600;7.310;2022-12-29T12:21:14;11.30;1.00
14053;DHT22;7101;51.600;7.310;2022-12-29T12:23:57;11.30;99.90
14053;DHT22;7101;51.600;7.310;2022-12-29T12:26:30;11.30;1.00
14053;DHT22;7101;51.600;7.310;2022-12-29T12:29:00;11.40;46.30
14053;DHT22;7101;51.600;7.310;2022-12-29T12:31:41;11.40;99.90
14053;DHT22;7101;51.600;7.310;2022-12-29T12:34:15;11.40;1.00
14053;DHT22;7101;51.600;7.310;2022-12-29T12:37:15;11.30;1.00
14053;DHT22;7101;51.600;7.310;2022-12-29T12:40:07;11.30;1.00
14053;DHT22;7101;51.600;7.310;2022-12-29T12:42:43;11.20;1.00
14053;DHT22;7101;51.600;7.310;2022-12-29T12:45:30;11.20;99.90
14053;DHT22;7101;51.600;7.310;2022-12-29T12:48:11;11.20;99.90
14053;DHT22;7101;51.600;7.310;2022-12-29T12:50:49;11.30;99.90
14053;DHT22;7101;51.600;7.310;2022-12-29T12:59:15;11.20;1.00
14053;DHT22;7101;51.600;7.310;2022-12-29T13:01:55;11.20;1.00
14053;DHT22;7101;51.600;7.310;2022-12-29T13:04:38;11.30;99.90
14053;DHT22;7101;51.600;7.310;2022-12-29T13:07:14;11.20;1.00
14053;DHT22;7101;51.600;7.310;2022-12-29T13:09:56;11.20;99.90
14053;DHT22;7101;51.600;7.310;2022-12-29T13:12:36;11.20;99.90
14053;DHT22;7101;51.600;7.310;2022-12-29T13:15:19;11.20;1.00
14053;DHT22;7101;51.600;7.310;2022-12-29T13:17:52;11.30;1.00
14053;DHT22;7101;51.600;7.310;2022-12-29T13:20:28;11.20;1.00
14053;DHT22;7101;51.600;7.310;2022-12-29T13:23:02;11.20;99.90
14053;DHT22;7101;51.600;7.310;2022-12-29T13:25:37;11.10;99.90
14053;DHT22;7101;51.600;7.310;2022-12-29T13:28:14;11.10;1.00
14053;DHT22;7101;51.600;7.310;2022-12-29T13:30:49;11.00;1.00
14053;DHT22;7101;51.600;7.310;2022-12-29T13:33:25;11.10;1.00
14053;DHT22;7101;51.600;7.310;2022-12-29T13:36:00;11.20;1.00
14053;DHT22;7101;51.600;7.310;2022-12-29T13:38:34;11.00;1.00
14053;DHT22;7101;51.600;7.310;2022-12-29T13:41:05;11.00;1.00
14053;DHT22;7101;51.600;7.310;2022-12-29T13:43:39;11.00;1.00
14053;DHT22;7101;51.600;7.310;2022-12-29T13:46:10;11.10;1.00
14053;DHT22;7101;51.600;7.310;2022-12-29T13:48:41;11.10;1.00
14053;DHT22;7101;51.600;7.310;2022-12-29T13:51:11;11.00;1.00
14053;DHT22;7101;51.600;7.310;2022-12-29T13:53:49;11.10;41.30
14053;DHT22;7101;51.600;7.310;2022-12-29T13:56:24;11.10;1.00
14053;DHT22;7101;51.600;7.310;2022-12-29T13:58:58;11.10;1.00
14053;DHT22;7101;51.600;7.310;2022-12-29T14:01:33;10.90;99.90
14053;DHT22;7101;51.600;7.310;2022-12-29T14:04:03;10.90;15.20
14053;DHT22;7101;51.600;7.310;2022-12-29T14:06:36;10.80;99.90
14053;DHT22;7101;51.600;7.310;2022-12-29T14:09:29;10.90;99.90
14053;DHT22;7101;51.600;7.310;2022-12-29T14:11:58;10.80;1.00
14053;DHT22;7101;51.600;7.310;2022-12-29T14:14:28;10.90;39.50
14053;DHT22;7101;51.600;7.310;2022-12-29T14:17:08;10.90;99.90
14053;DHT22;7101;51.600;7.310;2022-12-29T14:19:37;10.80;99.90
14053;DHT22;7101;51.600;7.310;2022-12-29T14:22:06;10.80;99.90
14053;DHT22;7101;51.600;7.310;2022-12-29T14:24:44;10.80;99.90
14053;DHT22;7101;51.600;7.310;2022-12-29T14:30:52;10.70;1.00
14053;DHT22;7101;51.600;7.310;2022-12-29T14:33:22;10.60;1.00
14053;DHT22;7101;51.600;7.310;2022-12-29T14:35:52;10.70;1.00
14053;DHT22;7101;51.600;7.310;2022-12-29T14:38:28;10.60;1.00
14053;DHT22;7101;51.600;7.310;2022-12-29T14:41:26;10.60;1.00
14053;DHT22;7101;51.600;7.310;2022-12-29T14:43:59;10.50;99.90
14053;DHT22;7101;51.600;7.310;2022-12-29T14:46:47;10.40;99.90
14053;DHT22;7101;51.600;7.310;2022-12-29T14:49:18;10.50;99.90
14053;DHT22;7101;51.600;7.310;2022-12-29T14:51:50;10.50;99.90
14053;DHT22;7101;51.600;7.310;2022-12-29T14:54:47;10.40;1.00
14053;DHT22;7101;51.600;7.310;2022-12-29T14:57:35;10.40;99.90
14053;DHT22;7101;51.600;7.310;2022-12-29T15:00:22;10.40;1.00
14053;DHT22;7101;51.600;7.310;2022-12-29T15:03:00;10.40;1.00
14053;DHT22;7101;51.600;7.310;2022-12-29T15:05:36;10.40;1.00
14053;DHT22;7101;51.600;7.310;2022-12-29T15:08:17;10.40;1.00
14053;DHT22;7101;51.600;7.310;2022-12-29T15:10:48;10.40;1.00
14053;DHT22;7101;51.600;7.310;2022-12-29T15:13:22;10.40;1.00
14053;DHT22;7101;51.600;7.310;2022-12-29T15:15:51;10.40;1.00
14053;DHT22;7101;51.600;7.310;2022-12-29T15:18:28;10.40;1.00
14053;DHT22;7101;51.600;7.310;2022-12-29T15:20:57;10.40;99.90
14053;DHT22;7101;51.600;7.310;2022-12-29T15:23:25;10.40;99.90
14053;DHT22;7101;51.600;7.310;2022-12-29T15:25:55;10.50;99.90
14053;DHT22;7101;51.600;7.310;2022-12-29T15:28:23;10.40;1.00
14053;DHT22;7101;51.600;7.310;2022-12-29T15:30:53;10.40;99.90
14053;DHT22;7101;51.600;7.310;2022-12-29T15:33:23;10.40;1.00
14053;DHT22;7101;51.600;7.310;2022-12-29T15:35:54;10.40;1.00
14053;DHT22;7101;51.600;7.310;2022-12-29T15:38:24;10.40;1.00
14053;DHT22;7101;51.600;7.310;2022-12-29T15:40:53;10.40;99.90
14053;DHT22;7101;51.600;7.310;2022-12-29T15:43:29;10.50;1.00
14053;DHT22;7101;51.600;7.310;2022-12-29T15:46:01;10.40;1.00
14053;DHT22;7101;51.600;7.310;2022-12-29T15:48:30;10.30;99.90
14053;DHT22;7101;51.600;7.310;2022-12-29T15:50:58;10.30;99.90
14053;DHT22;7101;51.600;7.310;2022-12-29T15:53:27;10.20;99.90
14053;DHT22;7101;51.600;7.310;2022-12-29T15:55:58;10.20;99.90
14053;DHT22;7101;51.600;7.310;2022-12-29T15:58:27;10.30;99.90
14053;DHT22;7101;51.600;7.310;2022-12-29T16:00:55;10.30;1.00
14053;DHT22;7101;51.600;7.310;2022-12-29T16:03:25;10.30;99.90
14053;DHT22;7101;51.600;7.310;2022-12-29T16:05:55;10.20;99.90
14053;DHT22;7101;51.600;7.310;2022-12-29T16:08:28;10.20;1.00
14053;DHT22;7101;51.600;7.310;2022-12-29T16:10:58;10.20;1.00
14053;DHT22;7101;51.600;7.310;2022-12-29T16:13:28;10.20;1.00
14053;DHT22;7101;51.600;7.310;2022-12-29T16:15:59;10.20;1.00
14053;DHT22;7101;51.600;7.310;2022-12-29T16:18:30;10.20;99.90
14053;DHT22;7101;51.600;7.310;2022-12-29T16:21:13;10.20;99.90
14053;DHT22;7101;51.600;7.310;2022-12-29T16:23:43;10.30;68.00
14053;DHT22;7101;51.600;7.310;2022-12-29T16:26:16;10.30;73.40
14053;DHT22;7101;51.600;7.310;2022-12-29T16:28:43;10.30;1.00
14053;DHT22;7101;51.600;7.310;2022-12-29T16:31:18;10.30;1.00
14053;DHT22;7101;51.600;7.310;2022-12-29T16:33:49;10.30;1.00
14053;DHT22;7101;51.600;7.310;2022-12-29T16:36:32;10.30;99.90
14053;DHT22;7101;51.600;7.310;2022-12-29T16:39:16;10.30;99.90
14053;DHT22;7101;51.600;7.310;2022-12-29T16:41:47;10.20;22.70